sensor_id;sensor_type;location;lat;lon;timestamp;temperature;humidity
21115;DHT22;10715;48.546;9.896;2022-11-14T00:00:10;3.00;99.90
21115;DHT22;10715;48.546;9.896;2022-11-14T00:02:37;3.00;99.90
21115;DHT22;10715;48.546;9.896;2022-11-14T00:05:04;3.00;99.90
21115;DHT22;10715;48.546;9.896;2022-11-14T00:07:31;3.00;99.90
21115;DHT22;10715;48.546;9.896;2022-11-14T00:09:57;3.00;99.90
21115;DHT22;10715;48.546;9.896;2022-11-14T00:12:23;3.00;99.90
21115;DHT22;10715;48.546;9.896;2022-11-14T00:14:49;3.00;99.90
21115;DHT22;10715;48.546;9.896;2022-11-14T00:17:16;3.00;99.90
21115;DHT22;10715;48.546;9.896;2022-11-14T00:19:42;3.00;99.90
21115;DHT22;10715;48.546;9.896;2022-11-14T00:22:08;3.00;99.90
21115;DHT22;10715;48.546;9.896;2022-11-14T00:24:33;3.00;99.90
21115;DHT22;10715;48.546;9.896;2022-11-14T00:26:59;2.90;99.90
21115;DHT22;10715;48.546;9.896;2022-11-14T00:29:25;2.90;99.90
21115;DHT22;10715;48.546;9.896;2022-11-14T00:31:51;2.90;99.90
21115;DHT22;10715;48.546;9.896;2022-11-14T00:34:17;3.00;99.90
21115;DHT22;10715;48.546;9.896;2022-11-14T00:36:42;3.00;99.90
21115;DHT22;10715;48.546;9.896;2022-11-14T00:39:12;3.00;99.90
21115;DHT22;10715;48.546;9.896;2022-11-14T00:41:38;3.00;99.90
21115;DHT22;10715;48.546;9.896;2022-11-14T00:44:04;3.00;99.90
21115;DHT22;10715;48.546;9.896;2022-11-14T00:46:30;2.90;99.90
21115;DHT22;10715;48.546;9.896;2022-11-14T00:48:55;3.00;99.90
21115;DHT22;10715;48.546;9.896;2022-11-14T00:51:21;3.00;99.90
21115;DHT22;10715;48.546;9.896;2022-11-14T00:53:47;2.90;99.90
21115;DHT22;10715;48.546;9.896;2022-11-14T00:56:13;2.90;99.90
21115;DHT22;10715;48.546;9.896;2022-11-14T01:01:06;2.90;99.90
21115;DHT22;10715;48.546;9.896;2022-11-14T01:03:32;2.80;99.90
21115;DHT22;10715;48.546;9.896;2022-11-14T01:06:03;2.80;99.90
21115;DHT22;10715;48.546;9.896;2022-11-14T01:08:30;2.80;99.90
21115;DHT22;10715;48.546;9.896;2022-11-14T01:10:55;2.80;99.90
21115;DHT22;10715;48.546;9.896;2022-11-14T01:13:21;2.70;99.90
21115;DHT22;10715;48.546;9.896;2022-11-14T01:15:48;2.70;99.90
21115;DHT22;10715;48.546;9.896;2022-11-14T01:18:20;2.80;99.90
21115;DHT22;10715;48.546;9.896;2022-11-14T01:20:47;2.80;99.90
21115;DHT22;10715;48.546;9.896;2022-11-14T01:23:15;2.80;99.90
21115;DHT22;10715;48.546;9.896;2022-11-14T01:25:41;2.80;99.90
21115;DHT22;10715;48.546;9.896;2022-11-14T01:28:10;2.80;99.90
21115;DHT22;10715;48.546;9.896;2022-11-14T01:30:36;2.80;99.90
21115;DHT22;10715;48.546;9.896;2022-11-14T01:33:03;2.80;99.90
21115;DHT22;10715;48.546;9.896;2022-11-14T01:35:30;2.80;99.90
21115;DHT22;10715;48.546;9.896;2022-11-14T01:37:56;2.90;99.90
21115;DHT22;10715;48.546;9.896;2022-11-14T01:40:22;2.90;99.90
21115;DHT22;10715;48.546;9.896;2022-11-14T01:54:04;3.00;99.90
21115;DHT22;10715;48.546;9.896;2022-11-14T01:56:41;3.10;99.90
21115;DHT22;10715;48.546;9.896;2022-11-14T01:59:12;3.10;99.90
21115;DHT22;10715;48.546;9.896;2022-11-14T02:01:46;3.10;99.90
21115;DHT22;10715;48.546;9.896;2022-11-14T02:04:17;3.10;99.90
21115;DHT22;10715;48.546;9.896;2022-11-14T02:06:45;3.10;99.90
21115;DHT22;10715;48.546;9.896;2022-11-14T02:09:11;3.10;99.90
21115;DHT22;10715;48.546;9.896;2022-11-14T02:11:43;3.20;99.90
21115;DHT22;10715;48.546;9.896;2022-11-14T02:14:09;3.20;99.90
21115;DHT22;10715;48.546;9.896;2022-11-14T02:16:37;3.20;99.90
21115;DHT22;10715;48.546;9.896;2022-11-14T02:19:04;3.20;99.90
21115;DHT22;10715;48.546;9.896;2022-11-14T02:21:30;3.20;99.90
21115;DHT22;10715;48.546;9.896;2022-11-14T02:23:56;3.20;99.90
21115;DHT22;10715;48.546;9.896;2022-11-14T02:26:22;3.20;99.90
21115;DHT22;10715;48.546;9.896;2022-11-14T02:28:48;3.20;99.90
21115;DHT22;10715;48.546;9.896;2022-11-14T02:31:14;3.20;99.90
21115;DHT22;10715;48.546;9.896;2022-11-14T02:33:41;3.20;99.90
21115;DHT22;10715;48.546;9.896;2022-11-14T02:36:07;3.20;99.90
21115;DHT22;10715;48.546;9.896;2022-11-14T02:38:33;3.20;99.90
21115;DHT22;10715;48.546;9.896;2022-11-14T02:41:00;3.20;99.90
21115;DHT22;10715;48.546;9.896;2022-11-14T02:43:26;3.20;99.90
21115;DHT22;10715;48.546;9.896;2022-11-14T02:45:51;3.20;99.90
21115;DHT22;10715;48.546;9.896;2022-11-14T02:48:17;3.20;99.90
21115;DHT22;10715;48.546;9.896;2022-11-14T02:50:43;3.20;99.90
21115;DHT22;10715;48.546;9.896;2022-11-14T02:53:09;3.20;99.90
21115;DHT22;10715;48.546;9.896;2022-11-14T02:55:35;3.20;99.90
21115;DHT22;10715;48.546;9.896;2022-11-14T02:58:00;3.20;99.90
21115;DHT22;10715;48.546;9.896;2022-11-14T03:00:26;3.20;99.90
21115;DHT22;10715;48.546;9.896;2022-11-14T03:02:52;3.10;99.90
21115;DHT22;10715;48.546;9.896;2022-11-14T03:05:18;3.10;99.90
21115;DHT22;10715;48.546;9.896;2022-11-14T03:07:44;3.10;99.90
21115;DHT22;10715;48.546;9.896;2022-11-14T03:10:10;3.10;99.90
21115;DHT22;10715;48.546;9.896;2022-11-14T03:12:36;3.00;99.90
21115;DHT22;10715;48.546;9.896;2022-11-14T03:15:04;3.10;99.90
21115;DHT22;10715;48.546;9.896;2022-11-14T03:17:31;3.10;99.90
21115;DHT22;10715;48.546;9.896;2022-11-14T03:19:57;3.10;99.90
21115;DHT22;10715;48.546;9.896;2022-11-14T03:22:23;3.10;99.90
21115;DHT22;10715;48.546;9.896;2022-11-14T03:24:49;3.10;99.90
21115;DHT22;10715;48.546;9.896;2022-11-14T03:27:15;3.10;99.90
21115;DHT22;10715;48.546;9.896;2022-11-14T03:29:40;3.10;99.90
21115;DHT22;10715;48.546;9.896;2022-11-14T03:32:06;3.20;99.90
21115;DHT22;10715;48.546;9.896;2022-11-14T03:34:32;3.20;99.90
21115;DHT22;10715;48.546;9.896;2022-11-14T03:36:58;3.20;99.90
21115;DHT22;10715;48.546;9.896;2022-11-14T03:39:25;3.20;99.90
21115;DHT22;10715;48.546;9.896;2022-11-14T03:41:51;3.20;99.90
21115;DHT22;10715;48.546;9.896;2022-11-14T03:44:17;3.20;99.90
21115;DHT22;10715;48.546;9.896;2022-11-14T03:46:42;3.20;99.90
21115;DHT22;10715;48.546;9.896;2022-11-14T03:49:08;3.20;99.90
21115;DHT22;10715;48.546;9.896;2022-11-14T03:51:34;3.30;99.90
21115;DHT22;10715;48.546;9.896;2022-11-14T03:54:00;3.30;99.90
21115;DHT22;10715;48.546;9.896;2022-11-14T03:56:26;3.30;99.90
21115;DHT22;10715;48.546;9.896;2022-11-14T03:58:51;3.40;99.90
21115;DHT22;10715;48.546;9.896;2022-11-14T04:01:17;3.40;99.90
21115;DHT22;10715;48.546;9.896;2022-11-14T04:03:43;3.40;99.90
21115;DHT22;10715;48.546;9.896;2022-11-14T04:06:08;3.40;99.90
21115;DHT22;10715;48.546;9.896;2022-11-14T04:08:34;3.40;99.90
21115;DHT22;10715;48.546;9.896;2022-11-14T04:11:00;3.40;99.90
21115;DHT22;10715;48.546;9.896;2022-11-14T04:13:26;3.40;99.90
21115;DHT22;10715;48.546;9.896;2022-11-14T04:15:58;3.50;99.90
21115;DHT22;10715;48.546;9.896;2022-11-14T04:18:25;3.50;99.90
21115;DHT22;10715;48.546;9.896;2022-11-14T04:20:51;3.50;99.90
21115;DHT22;10715;48.546;9.896;2022-11-14T04:23:18;3.50;99.90
21115;DHT22;10715;48.546;9.896;2022-11-14T04:25:44;3.60;99.90
21115;DHT22;10715;48.546;9.896;2022-11-14T04:28:11;3.60;99.90
21115;DHT22;10715;48.546;9.896;2022-11-14T04:30:37;3.60;99.90
21115;DHT22;10715;48.546;9.896;2022-11-14T04:33:03;3.60;99.90
21115;DHT22;10715;48.546;9.896;2022-11-14T04:35:29;3.60;99.90
21115;DHT22;10715;48.546;9.896;2022-11-14T04:37:54;3.60;99.90
21115;DHT22;10715;48.546;9.896;2022-11-14T04:40:20;3.60;99.90
21115;DHT22;10715;48.546;9.896;2022-11-14T04:42:46;3.60;99.90
21115;DHT22;10715;48.546;9.896;2022-11-14T04:45:12;3.60;99.90
21115;DHT22;10715;48.546;9.896;2022-11-14T04:47:40;3.70;99.90
21115;DHT22;10715;48.546;9.896;2022-11-14T04:50:06;3.70;99.90
21115;DHT22;10715;48.546;9.896;2022-11-14T04:52:32;3.70;99.90
21115;DHT22;10715;48.546;9.896;2022-11-14T04:54:58;3.70;99.90
21115;DHT22;10715;48.546;9.896;2022-11-14T04:57:23;3.70;99.90
21115;DHT22;10715;48.546;9.896;2022-11-14T04:59:49;3.70;99.90
21115;DHT22;10715;48.546;9.896;2022-11-14T05:02:15;3.70;99.90
21115;DHT22;10715;48.546;9.896;2022-11-14T05:04:41;3.70;99.90
21115;DHT22;10715;48.546;9.896;2022-11-14T05:07:08;3.70;99.90
21115;DHT22;10715;48.546;9.896;2022-11-14T05:09:35;3.70;99.90
21115;DHT22;10715;48.546;9.896;2022-11-14T05:12:02;3.70;99.90
21115;DHT22;10715;48.546;9.896;2022-11-14T05:14:28;3.70;99.90
21115;DHT22;10715;48.546;9.896;2022-11-14T05:16:53;3.70;99.90
21115;DHT22;10715;48.546;9.896;2022-11-14T05:19:19;3.70;99.90
21115;DHT22;10715;48.546;9.896;2022-11-14T05:21:45;3.70;99.90
21115;DHT22;10715;48.546;9.896;2022-11-14T05:24:10;3.70;99.90
21115;DHT22;10715;48.546;9.896;2022-11-14T05:26:36;3.70;99.90
21115;DHT22;10715;48.546;9.896;2022-11-14T05:29:02;3.70;99.90
21115;DHT22;10715;48.546;9.896;2022-11-14T05:31:28;3.70;99.90
21115;DHT22;10715;48.546;9.896;2022-11-14T05:33:54;3.70;99.90
21115;DHT22;10715;48.546;9.896;2022-11-14T05:36:20;3.70;99.90
21115;DHT22;10715;48.546;9.896;2022-11-14T05:38:45;3.70;99.90
21115;DHT22;10715;48.546;9.896;2022-11-14T05:41:16;3.70;99.90
21115;DHT22;10715;48.546;9.896;2022-11-14T05:43:42;3.70;99.90
21115;DHT22;10715;48.546;9.896;2022-11-14T05:46:13;3.70;99.90
21115;DHT22;10715;48.546;9.896;2022-11-14T05:48:39;3.70;99.90
21115;DHT22;10715;48.546;9.896;2022-11-14T05:51:06;3.70;99.90
21115;DHT22;10715;48.546;9.896;2022-11-14T05:53:33;3.70;99.90
21115;DHT22;10715;48.546;9.896;2022-11-14T05:56:00;3.70;99.90
21115;DHT22;10715;48.546;9.896;2022-11-14T05:58:26;3.70;99.90
21115;DHT22;10715;48.546;9.896;2022-11-14T06:00:59;3.70;99.90
21115;DHT22;10715;48.546;9.896;2022-11-14T06:03:25;3.70;99.90
21115;DHT22;10715;48.546;9.896;2022-11-14T06:05:54;3.70;99.90
21115;DHT22;10715;48.546;9.896;2022-11-14T06:08:19;3.70;99.90
21115;DHT22;10715;48.546;9.896;2022-11-14T06:10:45;3.70;99.90
21115;DHT22;10715;48.546;9.896;2022-11-14T06:13:11;3.70;99.90
21115;DHT22;10715;48.546;9.896;2022-11-14T06:15:36;3.60;99.90
21115;DHT22;10715;48.546;9.896;2022-11-14T06:18:02;3.60;99.90
21115;DHT22;10715;48.546;9.896;2022-11-14T06:20:28;3.50;99.90
21115;DHT22;10715;48.546;9.896;2022-11-14T06:22:54;3.50;99.90
21115;DHT22;10715;48.546;9.896;2022-11-14T06:25:20;3.50;99.90
21115;DHT22;10715;48.546;9.896;2022-11-14T06:27:45;3.50;99.90
21115;DHT22;10715;48.546;9.896;2022-11-14T06:30:11;3.50;99.90
21115;DHT22;10715;48.546;9.896;2022-11-14T06:32:37;3.50;99.90
21115;DHT22;10715;48.546;9.896;2022-11-14T06:35:03;3.50;99.90
21115;DHT22;10715;48.546;9.896;2022-11-14T06:37:29;3.60;99.90
21115;DHT22;10715;48.546;9.896;2022-11-14T06:39:54;3.60;99.90
21115;DHT22;10715;48.546;9.896;2022-11-14T06:42:20;3.60;99.90
21115;DHT22;10715;48.546;9.896;2022-11-14T06:44:46;3.60;99.90
21115;DHT22;10715;48.546;9.896;2022-11-14T06:47:11;3.70;99.90
21115;DHT22;10715;48.546;9.896;2022-11-14T06:49:37;3.70;99.90
21115;DHT22;10715;48.546;9.896;2022-11-14T06:52:03;3.70;99.90
21115;DHT22;10715;48.546;9.896;2022-11-14T06:54:29;3.70;99.90
21115;DHT22;10715;48.546;9.896;2022-11-14T06:56:54;3.70;99.90
21115;DHT22;10715;48.546;9.896;2022-11-14T06:59:20;3.80;99.90
21115;DHT22;10715;48.546;9.896;2022-11-14T07:01:46;3.80;99.90
21115;DHT22;10715;48.546;9.896;2022-11-14T07:04:11;3.90;99.90
21115;DHT22;10715;48.546;9.896;2022-11-14T07:06:37;3.90;99.90
21115;DHT22;10715;48.546;9.896;2022-11-14T07:09:05;3.90;99.90
21115;DHT22;10715;48.546;9.896;2022-11-14T07:11:31;3.90;99.90
21115;DHT22;10715;48.546;9.896;2022-11-14T07:14:01;4.00;99.90
21115;DHT22;10715;48.546;9.896;2022-11-14T07:16:32;4.00;99.90
21115;DHT22;10715;48.546;9.896;2022-11-14T07:19:03;4.00;99.90
21115;DHT22;10715;48.546;9.896;2022-11-14T07:21:30;4.10;99.90
21115;DHT22;10715;48.546;9.896;2022-11-14T07:23:56;4.10;99.90
21115;DHT22;10715;48.546;9.896;2022-11-14T07:26:23;4.20;99.90
21115;DHT22;10715;48.546;9.896;2022-11-14T07:28:49;4.20;99.90
21115;DHT22;10715;48.546;9.896;2022-11-14T07:31:16;4.20;99.90
21115;DHT22;10715;48.546;9.896;2022-11-14T07:33:43;4.30;99.90
21115;DHT22;10715;48.546;9.896;2022-11-14T07:36:10;4.40;99.90
21115;DHT22;10715;48.546;9.896;2022-11-14T07:38:36;4.40;99.90
21115;DHT22;10715;48.546;9.896;2022-11-14T07:41:11;4.40;99.90
21115;DHT22;10715;48.546;9.896;2022-11-14T07:43:37;4.50;99.90
21115;DHT22;10715;48.546;9.896;2022-11-14T07:48:33;4.70;99.90
21115;DHT22;10715;48.546;9.896;2022-11-14T07:51:00;4.80;99.90
21115;DHT22;10715;48.546;9.896;2022-11-14T07:53:27;4.90;99.90
21115;DHT22;10715;48.546;9.896;2022-11-14T07:55:53;5.00;99.90
21115;DHT22;10715;48.546;9.896;2022-11-14T07:58:19;5.00;99.90
21115;DHT22;10715;48.546;9.896;2022-11-14T08:00:44;5.00;99.90
21115;DHT22;10715;48.546;9.896;2022-11-14T08:03:10;5.00;99.90
21115;DHT22;10715;48.546;9.896;2022-11-14T08:05:36;5.10;99.90
21115;DHT22;10715;48.546;9.896;2022-11-14T08:08:02;5.00;99.90
21115;DHT22;10715;48.546;9.896;2022-11-14T08:10:28;5.00;99.90
21115;DHT22;10715;48.546;9.896;2022-11-14T08:12:58;5.10;99.90
21115;DHT22;10715;48.546;9.896;2022-11-14T08:15:24;5.00;99.90
21115;DHT22;10715;48.546;9.896;2022-11-14T08:17:50;5.10;99.90
21115;DHT22;10715;48.546;9.896;2022-11-14T08:20:16;5.10;99.90
21115;DHT22;10715;48.546;9.896;2022-11-14T08:22:42;5.10;99.90
21115;DHT22;10715;48.546;9.896;2022-11-14T08:25:08;5.10;99.90
21115;DHT22;10715;48.546;9.896;2022-11-14T08:27:33;5.10;99.90
21115;DHT22;10715;48.546;9.896;2022-11-14T08:29:59;5.30;99.90
21115;DHT22;10715;48.546;9.896;2022-11-14T08:32:25;5.40;99.90
21115;DHT22;10715;48.546;9.896;2022-11-14T08:34:51;5.40;99.90
21115;DHT22;10715;48.546;9.896;2022-11-14T08:37:16;5.50;99.90
21115;DHT22;10715;48.546;9.896;2022-11-14T08:39:42;5.50;99.90
21115;DHT22;10715;48.546;9.896;2022-11-14T08:42:08;5.50;99.90
21115;DHT22;10715;48.546;9.896;2022-11-14T08:44:34;5.60;99.90
21115;DHT22;10715;48.546;9.896;2022-11-14T08:47:00;5.70;99.90
21115;DHT22;10715;48.546;9.896;2022-11-14T08:49:28;5.90;99.90
21115;DHT22;10715;48.546;9.896;2022-11-14T08:51:53;6.20;99.90
21115;DHT22;10715;48.546;9.896;2022-11-14T08:54:19;6.60;99.90
21115;DHT22;10715;48.546;9.896;2022-11-14T08:56:45;6.90;99.90
21115;DHT22;10715;48.546;9.896;2022-11-14T08:59:11;7.20;99.90
21115;DHT22;10715;48.546;9.896;2022-11-14T09:01:36;7.30;99.90
21115;DHT22;10715;48.546;9.896;2022-11-14T09:04:02;7.30;99.90
21115;DHT22;10715;48.546;9.896;2022-11-14T09:06:29;7.20;99.90
21115;DHT22;10715;48.546;9.896;2022-11-14T09:08:54;7.10;99.90
21115;DHT22;10715;48.546;9.896;2022-11-14T09:11:20;7.30;99.90
21115;DHT22;10715;48.546;9.896;2022-11-14T09:13:46;7.50;99.90
21115;DHT22;10715;48.546;9.896;2022-11-14T09:16:12;7.80;99.90
21115;DHT22;10715;48.546;9.896;2022-11-14T09:18:38;8.10;99.90
21115;DHT22;10715;48.546;9.896;2022-11-14T09:21:06;8.50;99.90
21115;DHT22;10715;48.546;9.896;2022-11-14T09:23:32;8.90;99.90
21115;DHT22;10715;48.546;9.896;2022-11-14T09:26:02;9.30;99.90
21115;DHT22;10715;48.546;9.896;2022-11-14T09:28:28;9.80;99.90
21115;DHT22;10715;48.546;9.896;2022-11-14T09:31:02;9.90;99.90
21115;DHT22;10715;48.546;9.896;2022-11-14T09:33:28;9.90;99.90
21115;DHT22;10715;48.546;9.896;2022-11-14T09:35:58;9.50;99.90
21115;DHT22;10715;48.546;9.896;2022-11-14T09:38:25;9.20;99.90
21115;DHT22;10715;48.546;9.896;2022-11-14T09:46:44;9.10;99.90
21115;DHT22;10715;48.546;9.896;2022-11-14T09:49:40;9.10;99.90
21115;DHT22;10715;48.546;9.896;2022-11-14T09:54:56;9.00;99.90
21115;DHT22;10715;48.546;9.896;2022-11-14T09:57:22;9.00;99.90
21115;DHT22;10715;48.546;9.896;2022-11-14T09:59:49;9.00;99.90
21115;DHT22;10715;48.546;9.896;2022-11-14T10:27:05;8.70;99.90
21115;DHT22;10715;48.546;9.896;2022-11-14T10:32:42;9.00;99.90
21115;DHT22;10715;48.546;9.896;2022-11-14T10:35:28;9.40;99.90
21115;DHT22;10715;48.546;9.896;2022-11-14T10:38:06;9.60;99.90
21115;DHT22;10715;48.546;9.896;2022-11-14T10:40:40;9.70;99.90
21115;DHT22;10715;48.546;9.896;2022-11-14T10:43:28;9.50;99.90
21115;DHT22;10715;48.546;9.896;2022-11-14T10:46:05;9.30;99.90
21115;DHT22;10715;48.546;9.896;2022-11-14T10:48:38;9.10;99.90
21115;DHT22;10715;48.546;9.896;2022-11-14T10:51:25;9.00;99.90
21115;DHT22;10715;48.546;9.896;2022-11-14T10:56:25;9.10;99.90
21115;DHT22;10715;48.546;9.896;2022-11-14T10:58:51;9.10;99.90
21115;DHT22;10715;48.546;9.896;2022-11-14T11:09:27;9.40;99.90
21115;DHT22;10715;48.546;9.896;2022-11-14T11:15:21;9.30;99.90
21115;DHT22;10715;48.546;9.896;2022-11-14T11:18:05;9.20;99.90
21115;DHT22;10715;48.546;9.896;2022-11-14T11:21:00;9.20;99.90
21115;DHT22;10715;48.546;9.896;2022-11-14T11:23:27;9.30;99.90
21115;DHT22;10715;48.546;9.896;2022-11-14T11:26:23;9.30;99.90
21115;DHT22;10715;48.546;9.896;2022-11-14T11:31:53;9.70;99.90
21115;DHT22;10715;48.546;9.896;2022-11-14T11:34:24;9.90;99.90
21115;DHT22;10715;48.546;9.896;2022-11-14T11:39:29;10.00;99.90
21115;DHT22;10715;48.546;9.896;2022-11-14T11:42:00;10.10;99.90
21115;DHT22;10715;48.546;9.896;2022-11-14T11:44:34;10.10;99.90
21115;DHT22;10715;48.546;9.896;2022-11-14T11:47:03;10.10;99.90
21115;DHT22;10715;48.546;9.896;2022-11-14T11:49:39;10.00;99.90
21115;DHT22;10715;48.546;9.896;2022-11-14T11:57:38;10.10;99.90
21115;DHT22;10715;48.546;9.896;2022-11-14T12:00:18;10.20;99.90
21115;DHT22;10715;48.546;9.896;2022-11-14T12:02:49;10.40;99.90
21115;DHT22;10715;48.546;9.896;2022-11-14T12:10:40;10.60;99.90
21115;DHT22;10715;48.546;9.896;2022-11-14T12:16:02;10.50;99.90
21115;DHT22;10715;48.546;9.896;2022-11-14T12:29:37;10.50;99.90
21115;DHT22;10715;48.546;9.896;2022-11-14T12:32:12;10.60;99.90
21115;DHT22;10715;48.546;9.896;2022-11-14T12:34:42;10.60;99.90
21115;DHT22;10715;48.546;9.896;2022-11-14T12:37:15;10.80;99.90
21115;DHT22;10715;48.546;9.896;2022-11-14T12:39:55;10.90;99.90
21115;DHT22;10715;48.546;9.896;2022-11-14T12:42:21;10.80;99.90
21115;DHT22;10715;48.546;9.896;2022-11-14T12:44:47;10.60;99.90
21115;DHT22;10715;48.546;9.896;2022-11-14T12:47:16;10.40;99.90
21115;DHT22;10715;48.546;9.896;2022-11-14T12:52:47;10.20;99.90
21115;DHT22;10715;48.546;9.896;2022-11-14T13:00:30;9.90;99.90
21115;DHT22;10715;48.546;9.896;2022-11-14T13:03:19;9.80;99.90
21115;DHT22;10715;48.546;9.896;2022-11-14T13:06:31;9.60;99.90
21115;DHT22;10715;48.546;9.896;2022-11-14T13:11:46;9.50;99.90
21115;DHT22;10715;48.546;9.896;2022-11-14T13:14:31;9.60;99.90
21115;DHT22;10715;48.546;9.896;2022-11-14T13:17:30;9.60;99.90
21115;DHT22;10715;48.546;9.896;2022-11-14T13:52:28;11.70;99.90
21115;DHT22;10715;48.546;9.896;2022-11-14T13:54:55;11.60;99.90
21115;DHT22;10715;48.546;9.896;2022-11-14T14:00:17;11.40;99.90
21115;DHT22;10715;48.546;9.896;2022-11-14T14:09:26;11.10;99.90
21115;DHT22;10715;48.546;9.896;2022-11-14T14:13:01;11.10;99.90
21115;DHT22;10715;48.546;9.896;2022-11-14T14:20:39;11.00;99.90
21115;DHT22;10715;48.546;9.896;2022-11-14T14:23:35;10.80;99.90
21115;DHT22;10715;48.546;9.896;2022-11-14T14:29:03;10.60;99.90
21115;DHT22;10715;48.546;9.896;2022-11-14T14:31:38;10.40;99.90
21115;DHT22;10715;48.546;9.896;2022-11-14T14:34:21;10.30;99.90
21115;DHT22;10715;48.546;9.896;2022-11-14T14:36:50;10.10;99.90
21115;DHT22;10715;48.546;9.896;2022-11-14T14:39:18;10.00;99.90
21115;DHT22;10715;48.546;9.896;2022-11-14T14:41:45;9.90;99.90
21115;DHT22;10715;48.546;9.896;2022-11-14T14:44:35;9.80;99.90
21115;DHT22;10715;48.546;9.896;2022-11-14T14:47:40;9.70;99.90
21115;DHT22;10715;48.546;9.896;2022-11-14T14:50:20;9.50;99.90
21115;DHT22;10715;48.546;9.896;2022-11-14T14:52:57;9.40;99.90
21115;DHT22;10715;48.546;9.896;2022-11-14T14:55:31;9.30;99.90
21115;DHT22;10715;48.546;9.896;2022-11-14T15:01:05;9.00;99.90
21115;DHT22;10715;48.546;9.896;2022-11-14T15:03:46;8.90;99.90
21115;DHT22;10715;48.546;9.896;2022-11-14T15:06:32;8.80;99.90
21115;DHT22;10715;48.546;9.896;2022-11-14T15:11:33;8.60;99.90
21115;DHT22;10715;48.546;9.896;2022-11-14T15:14:00;8.50;99.90
21115;DHT22;10715;48.546;9.896;2022-11-14T15:16:28;8.50;99.90
21115;DHT22;10715;48.546;9.896;2022-11-14T15:18:55;8.40;99.90
21115;DHT22;10715;48.546;9.896;2022-11-14T15:21:25;8.40;99.90
21115;DHT22;10715;48.546;9.896;2022-11-14T15:24:11;8.40;99.90
21115;DHT22;10715;48.546;9.896;2022-11-14T15:26:37;8.40;99.90
21115;DHT22;10715;48.546;9.896;2022-11-14T15:29:26;8.40;99.90
21115;DHT22;10715;48.546;9.896;2022-11-14T15:32:03;8.30;99.90
21115;DHT22;10715;48.546;9.896;2022-11-14T15:34:34;8.20;99.90
21115;DHT22;10715;48.546;9.896;2022-11-14T15:39:38;8.10;99.90
21115;DHT22;10715;48.546;9.896;2022-11-14T15:44:50;8.00;99.90
21115;DHT22;10715;48.546;9.896;2022-11-14T15:47:33;7.90;99.90
21115;DHT22;10715;48.546;9.896;2022-11-14T15:50:04;7.80;99.90
21115;DHT22;10715;48.546;9.896;2022-11-14T15:52:40;7.70;99.90
21115;DHT22;10715;48.546;9.896;2022-11-14T15:55:19;7.70;99.90
21115;DHT22;10715;48.546;9.896;2022-11-14T15:57:45;7.60;99.90
21115;DHT22;10715;48.546;9.896;2022-11-14T16:00:15;7.50;99.90
21115;DHT22;10715;48.546;9.896;2022-11-14T16:02:43;7.60;99.90
21115;DHT22;10715;48.546;9.896;2022-11-14T16:05:15;7.60;99.90
21115;DHT22;10715;48.546;9.896;2022-11-14T16:07:41;7.60;99.90
21115;DHT22;10715;48.546;9.896;2022-11-14T16:10:15;7.60;99.90
21115;DHT22;10715;48.546;9.896;2022-11-14T16:12:41;7.60;99.90
21115;DHT22;10715;48.546;9.896;2022-11-14T16:15:07;7.60;99.90
21115;DHT22;10715;48.546;9.896;2022-11-14T16:17:38;7.50;99.90
21115;DHT22;10715;48.546;9.896;2022-11-14T16:20:06;7.40;99.90
21115;DHT22;10715;48.546;9.896;2022-11-14T16:22:32;7.40;99.90
21115;DHT22;10715;48.546;9.896;2022-11-14T16:24:59;7.30;99.90
21115;DHT22;10715;48.546;9.896;2022-11-14T16:27:25;7.20;99.90
21115;DHT22;10715;48.546;9.896;2022-11-14T16:29:52;7.20;99.90
21115;DHT22;10715;48.546;9.896;2022-11-14T16:32:18;7.20;99.90
21115;DHT22;10715;48.546;9.896;2022-11-14T16:34:44;7.10;99.90
21115;DHT22;10715;48.546;9.896;2022-11-14T16:37:13;7.10;99.90
21115;DHT22;10715;48.546;9.896;2022-11-14T16:39:39;7.00;99.90
21115;DHT22;10715;48.546;9.896;2022-11-14T16:42:05;6.90;99.90
21115;DHT22;10715;48.546;9.896;2022-11-14T16:44:32;6.90;99.90
21115;DHT22;10715;48.546;9.896;2022-11-14T16:46:57;6.90;99.90
21115;DHT22;10715;48.546;9.896;2022-11-14T16:49:23;6.80;99.90
21115;DHT22;10715;48.546;9.896;2022-11-14T16:51:50;6.80;99.90
21115;DHT22;10715;48.546;9.896;2022-11-14T16:54:19;6.90;99.90
21115;DHT22;10715;48.546;9.896;2022-11-14T16:56:46;6.90;99.90
21115;DHT22;10715;48.546;9.896;2022-11-14T16:59:12;6.90;99.90
21115;DHT22;10715;48.546;9.896;2022-11-14T17:01:38;6.80;99.90
21115;DHT22;10715;48.546;9.896;2022-11-14T17:04:04;6.80;99.90
21115;DHT22;10715;48.546;9.896;2022-11-14T17:06:30;6.70;99.90
21115;DHT22;10715;48.546;9.896;2022-11-14T17:08:57;6.60;99.90
21115;DHT22;10715;48.546;9.896;2022-11-14T17:11:23;6.60;99.90
21115;DHT22;10715;48.546;9.896;2022-11-14T17:13:50;6.50;99.90
21115;DHT22;10715;48.546;9.896;2022-11-14T17:16:17;6.40;99.90
21115;DHT22;10715;48.546;9.896;2022-11-14T17:18:43;6.30;99.90
21115;DHT22;10715;48.546;9.896;2022-11-14T17:21:10;6.20;99.90
21115;DHT22;10715;48.546;9.896;2022-11-14T17:23:37;6.10;99.90
21115;DHT22;10715;48.546;9.896;2022-11-14T17:26:04;6.10;99.90
21115;DHT22;10715;48.546;9.896;2022-11-14T17:28:30;6.00;99.90
21115;DHT22;10715;48.546;9.896;2022-11-14T17:30:56;6.00;99.90
21115;DHT22;10715;48.546;9.896;2022-11-14T17:33:22;5.90;99.90
21115;DHT22;10715;48.546;9.896;2022-11-14T17:35:48;5.80;99.90
21115;DHT22;10715;48.546;9.896;2022-11-14T17:38:13;5.70;99.90
21115;DHT22;10715;48.546;9.896;2022-11-14T17:40:39;5.70;99.90
21115;DHT22;10715;48.546;9.896;2022-11-14T17:43:05;5.60;99.90
21115;DHT22;10715;48.546;9.896;2022-11-14T17:45:31;5.50;99.90
21115;DHT22;10715;48.546;9.896;2022-11-14T17:47:57;5.50;99.90
21115;DHT22;10715;48.546;9.896;2022-11-14T17:50:22;5.40;99.90
21115;DHT22;10715;48.546;9.896;2022-11-14T17:52:48;5.30;99.90
21115;DHT22;10715;48.546;9.896;2022-11-14T17:55:14;5.30;99.90
21115;DHT22;10715;48.546;9.896;2022-11-14T17:57:40;5.20;99.90
21115;DHT22;10715;48.546;9.896;2022-11-14T18:00:06;5.20;99.90
21115;DHT22;10715;48.546;9.896;2022-11-14T18:02:33;5.30;99.90
21115;DHT22;10715;48.546;9.896;2022-11-14T18:04:58;5.30;99.90
21115;DHT22;10715;48.546;9.896;2022-11-14T18:07:24;5.30;99.90
21115;DHT22;10715;48.546;9.896;2022-11-14T18:09:50;5.40;99.90
21115;DHT22;10715;48.546;9.896;2022-11-14T18:12:16;5.40;99.90
21115;DHT22;10715;48.546;9.896;2022-11-14T18:14:42;5.50;99.90
21115;DHT22;10715;48.546;9.896;2022-11-14T18:17:07;5.50;99.90
21115;DHT22;10715;48.546;9.896;2022-11-14T18:19:33;5.50;99.90
21115;DHT22;10715;48.546;9.896;2022-11-14T18:21:59;5.50;99.90
21115;DHT22;10715;48.546;9.896;2022-11-14T18:24:25;5.50;99.90
21115;DHT22;10715;48.546;9.896;2022-11-14T18:26:50;5.50;99.90
21115;DHT22;10715;48.546;9.896;2022-11-14T18:29:16;5.60;99.90
21115;DHT22;10715;48.546;9.896;2022-11-14T18:31:42;5.60;99.90
21115;DHT22;10715;48.546;9.896;2022-11-14T18:34:08;5.60;99.90
21115;DHT22;10715;48.546;9.896;2022-11-14T18:36:34;5.60;99.90
21115;DHT22;10715;48.546;9.896;2022-11-14T18:39:00;5.70;99.90
21115;DHT22;10715;48.546;9.896;2022-11-14T18:41:25;5.70;99.90